AirNav   Everest Fuels
 
 551 users online  

36AL Hidden Springs Airpark
Ozark, Alabama, USA

GOING TO OZARK?


FAA INFORMATION EFFECTIVE 31 JANUARY 2019

Location

FAA Identifier: 36AL
Lat/Long: 31-29-34.4000N / 085-32-03.4000W
31-29.573333N / 085-32.056667W
31.4928889 / -85.5342778
(estimated)
Elevation: 346 ft. / 105 m (estimated)
From city: 5 miles NE of OZARK, AL
Time zone: UTC -6 (UTC -5 during Daylight Saving Time)
Zip code: 36374

Airport Operations

Airport use: Private use. Permission required prior to landing
Activation date: 11/2011
Control tower: no
ARTCC: JACKSONVILLE CENTER
FSS: ANNISTON FLIGHT SERVICE STATION
Attendance: UNATNDD
Segmented circle: no

Airport Communications

WX ASOS at DHN (11 nm SE): PHONE 334-983-5999

Nearby radio navigation aids

VOR radial/distance  VOR name  Freq  Var
HEYr043/(9.4)HANCHEY VOR110.6003W
RRSr335/13.6WIREGRASS VORTAC111.6002E
OZRr039/16.7CAIRNS VOR/DME111.2003W
EDNr061/(22.3)ENTERPRISE VOR116.6003W
EUFr215/34.3EUFAULA VORTAC109.2002E

 
NDB name  Hdg/Dist  Freq  Var  ID
HANCHEY044/9.322103WHYE .... -.-- .
LOWE057/13.326903WLOR .-.. --- .-.
BOLL WEEVIL071/24.735203WBVG -... ...- --.
BLOOD129/35.536504WTOI - --- ..
BLAAK276/36.734403WIWJ .. .-- .---

Airport Services

Runway Information

Runway 17/35

Dimensions: 3000 x 60 ft. / 914 x 18 m
Surface: turf
RUNWAY 17  RUNWAY 35
Traffic pattern: leftright

Airport Ownership and Management from official FAA records

Ownership: Privately-owned
Owner: HIDDEN SPRINGS AIRPARK PROP. OWNERS
362 PRIVATE ROAD 1335
OZARK, AL 36360
Phone 334-774-1517
Manager: HIDDEN SPRINGS AIRPARK PROP. OWNERS
362 PRIVATE ROAD 1335, ATTN: GERALD G. SMITH
OZARK, AL 36360
Phone 334-774-1517
GERALD G. SMITH 334-618-3039 / 334-618-2331

Instrument Procedures

There are no published instrument procedures at 36AL.

Some nearby airports with instrument procedures:

71J - Ozark-Blackwell Field Airport (6 nm SW)
KHEY - Hanchey Army Heliport (Fort Rucker) (10 nm SW)
KDHN - Dothan Regional Airport (11 nm SE)
0J6 - Headland Municipal Airport (14 nm SE)
KLOR - Lowe Army Heliport (Fort Rucker) (14 nm SW)
KOZR - Cairns Army Airfield (Fort Rucker) (16 nm SW)
 
Loc | Ops | Rwys | IFR | FBO | Links
Com | Nav | Svcs | Stats | Notes
Aerial photo
No photo
 
Airport distance calculator
Flying to Hidden Springs Airpark? Find the distance to fly.

From to 36AL

Sunrise and sunset
Times for 22-Feb-2019
 Local
(UTC-6)
 Zulu
(UTC)
Morning civil twilight05:5311:53
Sunrise06:1812:18
Sunset17:3423:34
Evening civil twilight17:5823:58

Current date and time
Zulu (UTC)  23-Feb-2019 05:36:54
Local (UTC-6)  22-Feb-2019 23:36:54
 
METAR
KHEY 
11nm SW 
230458Z AUTO 00000KT 10SM OVC012 20/20 A3012 RMK AO2 OVC V BKN SLP200 T02010198 402610193
KDHN 
11nm S 
230453Z AUTO 17004KT 10SM OVC100 19/17 A3016 RMK AO2 SLP209 T01940172 402670189
KLOR 
14nm SW 
230508Z AUTO 00000KT 10SM -RA BKN013 OVC100 20/19 A3012 RMK AO2 RAE00RAB08 SLP181
KOZR 
16nm SW 
230456Z AUTO 17004KT 10SM BKN012 BKN100 20/19 A3012 RMK AO2 CIG 012V100 BKN012 V SCT SLP200 T02020194
KSXS 
18nm SW 
230458Z AUTO 20004KT 10SM BKN013 OVC100 20/20 A3012 RMK AO2 SLP199 T02030195
TAF
KDHN 
11nm S 
221735Z 2218/2318 18008KT P6SM OVC015 FM222000 18010KT P6SM BKN050 FM230800 VRB04KT 1SM BR BKN003 FM231500 13005KT P6SM OVC100
KOZR 
16nm SW 
230000Z 2300/2406 15006KT 8000 BR BKN020 QNH3010INS BECMG 2303/2304 17005KT 0800 FG OVC005 510023 QNH3010INS BECMG 2315/2316 18012G18KT 9999 NSW FEW013 BKN025 WS020/18031KT 510013 QNH3007INS BECMG 2317/2318 19015G20KT 9999 SCT016 510013 QNH3002INS BECMG 2323/2324 18009KT 9999 BKN016 510013 QNH3002INS BECMG 2403/2404 18009KT 8000 BR OVC001 510203 QNH3000INS TX28/2300Z TN19/2313Z LAST NO AMDS AFT 2307 NEXT 2312
NOTAMs
Click for the latest NOTAMs
NOTAMs are issued by the DoD/FAA and will open in a separate window not controlled by AirNav.

 

 
 

Would you like to see your business listed on this page?

 If your business provides an interesting product or service to pilots, flight crews, aircraft, or users of the Hidden Springs Airpark, you should consider listing it here.  To start the listing process, click on the button below
 
Add a business
 

Other Pages about Hidden Springs Airpark

Update a link
 
Copyright © AirNav, LLC. All rights reserved. Privacy Policy  Contact